createdAt,value
2022-10-04T00:02:40.110Z,0
2022-10-04T00:08:59.764Z,0
2022-10-04T00:15:22.861Z,0
2022-10-04T00:21:43.087Z,0
2022-10-04T00:28:05.814Z,0
2022-10-04T00:34:30.022Z,0
2022-10-04T00:40:48.799Z,0
2022-10-04T00:47:08.785Z,0
2022-10-04T00:53:32.023Z,0
2022-10-04T00:59:51.849Z,0
2022-10-04T01:06:14.793Z,0
2022-10-04T01:12:34.899Z,0
2022-10-04T01:18:57.736Z,0
2022-10-04T01:25:17.822Z,0
2022-10-04T01:31:41.178Z,0
2022-10-04T01:38:00.870Z,0
2022-10-04T01:44:23.793Z,0
2022-10-04T01:50:43.814Z,0
2022-10-04T01:57:06.790Z,0
2022-10-04T02:03:26.756Z,0
2022-10-04T02:09:49.837Z,0
2022-10-04T02:16:09.792Z,0
2022-10-04T02:22:32.810Z,0
2022-10-04T02:28:52.910Z,0
2022-10-04T02:35:15.743Z,0
2022-10-04T02:41:35.815Z,0
2022-10-04T02:47:58.874Z,0
2022-10-04T02:54:18.782Z,0
2022-10-04T03:00:41.917Z,0
2022-10-04T03:16:13.734Z,0
2022-10-04T03:22:33.769Z,0
2022-10-04T03:28:56.788Z,0
2022-10-04T03:35:16.965Z,0
2022-10-04T03:41:39.965Z,0
2022-10-04T03:47:59.788Z,0
2022-10-04T03:54:22.855Z,0
2022-10-04T04:00:42.822Z,0
2022-10-04T04:07:05.843Z,0
2022-10-04T04:13:25.876Z,0
2022-10-04T04:19:48.813Z,0
2022-10-04T04:26:08.745Z,0
2022-10-04T04:32:31.824Z,0
2022-10-04T04:38:51.745Z,0
2022-10-04T04:45:14.808Z,0
2022-10-04T04:51:34.862Z,0
2022-10-04T04:57:57.818Z,0
2022-10-04T05:04:17.870Z,0
2022-10-04T05:10:40.783Z,0
2022-10-04T05:17:00.807Z,0
2022-10-04T05:23:23.857Z,0
2022-10-04T05:29:43.820Z,0
2022-10-04T05:36:06.792Z,0
2022-10-04T05:42:26.730Z,0
2022-10-04T05:48:49.850Z,0
2022-10-04T05:55:09.896Z,0
2022-10-04T06:01:32.806Z,5.62
2022-10-04T06:07:52.928Z,5.62
2022-10-04T06:14:15.752Z,5.62
2022-10-04T06:20:35.827Z,11.25
2022-10-04T06:26:58.777Z,11.25
2022-10-04T06:33:18.837Z,11.25
2022-10-04T06:39:41.785Z,11.25
2022-10-04T06:46:01.819Z,11.25
2022-10-04T06:52:24.900Z,16.88
2022-10-04T06:58:44.799Z,16.88
2022-10-04T07:05:09.062Z,22.5
2022-10-04T07:11:27.860Z,22.5
2022-10-04T07:17:50.811Z,28.12
2022-10-04T07:24:10.860Z,33.75
2022-10-04T07:30:33.815Z,45
2022-10-04T07:36:53.858Z,45
2022-10-04T07:43:16.749Z,50.62
2022-10-04T07:49:37.089Z,50.62
2022-10-04T07:55:59.884Z,50.62
2022-10-04T08:19:05.760Z,50.62
2022-10-04T08:25:25.721Z,56.25
2022-10-04T08:31:48.779Z,45
2022-10-04T08:38:08.828Z,33.75
2022-10-04T08:44:31.793Z,33.75
2022-10-04T08:50:51.820Z,50.62
2022-10-04T08:57:16.253Z,39.38
2022-10-04T09:03:34.795Z,45
2022-10-04T09:09:58.155Z,50.62
2022-10-04T09:16:18.183Z,56.25
2022-10-04T09:22:41.855Z,56.25
2022-10-04T09:29:04.888Z,50.62
2022-10-04T09:35:24.973Z,67.5
2022-10-04T09:41:44.939Z,67.5
2022-10-04T09:48:07.965Z,73.12
2022-10-04T09:54:27.862Z,84.38
2022-10-04T10:00:50.756Z,50.62
2022-10-04T10:07:11.063Z,50.62
2022-10-04T10:13:33.792Z,45
2022-10-04T10:19:53.737Z,95.62
2022-10-04T10:26:16.801Z,78.75
2022-10-04T10:32:36.755Z,61.88
2022-10-04T10:38:59.770Z,84.38
2022-10-04T10:45:19.967Z,95.62
2022-10-04T10:51:43.209Z,84.38
2022-10-04T10:58:02.737Z,84.38
2022-10-04T11:04:25.768Z,67.5
2022-10-04T11:10:47.941Z,67.5
2022-10-04T11:17:08.892Z,78.75
2022-10-04T11:23:28.815Z,101.25
2022-10-04T11:29:51.768Z,101.25
2022-10-04T11:36:11.961Z,118.12
2022-10-04T11:42:34.740Z,123.75
2022-10-04T11:48:54.766Z,129.38
2022-10-04T11:55:17.836Z,112.5
2022-10-04T12:01:37.732Z,112.5
2022-10-04T12:08:00.806Z,112.5
2022-10-04T12:14:20.932Z,118.12
2022-10-04T12:20:43.764Z,118.12
2022-10-04T12:27:03.797Z,112.5
2022-10-04T12:33:26.771Z,118.12
2022-10-04T12:39:46.835Z,112.5
2022-10-04T12:46:09.873Z,106.88
2022-10-04T12:52:29.870Z,106.88
2022-10-04T12:58:52.748Z,101.25
2022-10-04T13:05:12.784Z,95.62
2022-10-04T13:11:35.806Z,95.62
2022-10-04T13:34:58.302Z,61.88
2022-10-04T13:41:17.769Z,50.62
2022-10-04T13:47:40.849Z,50.62
2022-10-04T13:54:00.805Z,45
2022-10-04T14:00:23.748Z,45
2022-10-04T14:06:43.802Z,39.38
2022-10-04T14:13:06.763Z,39.38
2022-10-04T14:19:26.757Z,39.38
2022-10-04T14:25:49.736Z,39.38
2022-10-04T14:32:10.009Z,39.38
2022-10-04T14:38:32.759Z,33.75
2022-10-04T14:44:52.752Z,33.75
2022-10-04T14:51:15.832Z,33.75
2022-10-04T14:57:35.787Z,33.75
2022-10-04T15:03:58.862Z,33.75
2022-10-04T15:10:18.771Z,33.75
2022-10-04T15:16:43.131Z,33.75
2022-10-04T15:23:02.909Z,33.75
2022-10-04T15:29:25.804Z,28.12
2022-10-04T15:35:45.806Z,28.12
2022-10-04T15:42:08.808Z,28.12
2022-10-04T15:48:29.164Z,28.12
2022-10-04T15:54:52.092Z,22.5
2022-10-04T16:01:11.791Z,16.88
2022-10-04T16:07:34.813Z,16.88
2022-10-04T16:13:54.768Z,11.25
2022-10-04T16:20:17.875Z,11.25
2022-10-04T16:26:37.903Z,11.25
2022-10-04T16:33:00.903Z,11.25
2022-10-04T16:39:20.840Z,5.62
2022-10-04T16:45:43.840Z,5.62
2022-10-04T16:52:03.968Z,0
2022-10-04T16:58:26.963Z,0
2022-10-04T17:04:46.931Z,0
2022-10-04T17:11:09.816Z,0
2022-10-04T17:17:29.818Z,0
2022-10-04T17:23:52.990Z,0
2022-10-04T17:30:12.742Z,0
2022-10-04T17:36:35.849Z,0
2022-10-04T17:42:55.906Z,0
2022-10-04T17:49:18.824Z,0
2022-10-04T17:55:38.861Z,0
2022-10-04T18:02:02.053Z,0
2022-10-04T18:24:50.732Z,0
2022-10-04T18:31:10.732Z,0
2022-10-04T18:37:33.765Z,0
2022-10-04T18:43:53.802Z,0
2022-10-04T18:50:16.756Z,0
2022-10-04T18:56:36.838Z,0
2022-10-04T19:02:59.811Z,0
2022-10-04T19:09:19.829Z,0
2022-10-04T19:15:42.802Z,0
2022-10-04T19:22:02.851Z,0
2022-10-04T19:28:25.968Z,0
2022-10-04T19:34:45.911Z,0
2022-10-04T19:41:08.887Z,0
2022-10-04T19:47:28.923Z,0
2022-10-04T19:53:51.907Z,0
2022-10-04T20:00:11.776Z,0
2022-10-04T20:06:34.766Z,0
2022-10-04T20:12:54.772Z,0
2022-10-04T20:19:17.884Z,0
2022-10-04T20:25:37.875Z,0
2022-10-04T20:32:00.816Z,0
2022-10-04T20:38:31.992Z,0
2022-10-04T20:44:44.788Z,0
2022-10-04T20:51:04.724Z,0
2022-10-04T20:57:27.824Z,0
2022-10-04T21:03:47.812Z,0
2022-10-04T21:10:10.891Z,0
2022-10-04T21:16:30.837Z,0
2022-10-04T21:22:53.833Z,0
2022-10-04T21:29:13.905Z,0
2022-10-04T21:35:36.863Z,0
2022-10-04T21:41:56.838Z,0
2022-10-04T21:48:19.803Z,0
2022-10-04T21:54:39.799Z,0
2022-10-04T22:20:13.780Z,0
2022-10-04T22:26:33.733Z,0
2022-10-04T22:32:56.794Z,0
2022-10-04T22:39:16.888Z,0
2022-10-04T22:45:39.778Z,0
2022-10-04T22:51:59.828Z,0
2022-10-04T22:58:22.854Z,0
2022-10-04T23:04:42.865Z,0
2022-10-04T23:11:05.747Z,0
2022-10-04T23:17:25.955Z,0
2022-10-04T23:23:48.730Z,0
2022-10-04T23:30:08.772Z,0
2022-10-04T23:36:31.781Z,0
2022-10-04T23:42:51.805Z,0
2022-10-04T23:49:14.766Z,0
2022-10-04T23:55:34.749Z,0
